Time;durP1;ratioP1;P1;durP2;ratioP2;P2;SDS_P1;SDS_P2;PMS_P1;PMS_P2;Temp;Humidity;BMP_temperature;BMP_pressure;BME280_temperature;BME280_humidity;BME280_pressure;Samples;Min_cycle;Max_cycle;Signal;HPM_P1;HPM_P2
2023/05/05 00:00:11;;;;;;;88.28;78.65;;;;;21.00;100341.00;;;;2050070;28;20223;-72
2023/05/05 00:01:11;;;;;;;81.35;72.85;;;;;21.00;100336.00;;;;2048796;28;20223;-72
2023/05/05 00:02:11;;;;;;;87.40;77.80;;;;;21.00;100336.00;;;;2050927;28;20231;-72
2023/05/05 00:03:12;;;;;;;84.07;75.33;;;;;21.00;100335.00;;;;2047149;28;20694;-72
2023/05/05 00:04:12;;;;;;;82.90;74.20;;;;;21.00;100335.00;;;;2053387;28;20567;-72
2023/05/05 00:05:13;;;;;;;80.03;71.63;;;;;21.00;100326.00;;;;2050649;28;20213;-72
2023/05/05 00:06:13;;;;;;;75.83;67.70;;;;;21.00;100343.00;;;;2050711;28;20215;-72
2023/05/05 00:07:13;;;;;;;82.53;73.70;;;;;21.00;100338.00;;;;2053028;28;20249;-72
2023/05/05 00:08:14;;;;;;;79.63;71.23;;;;;21.00;100338.00;;;;2053209;28;20258;-72
2023/05/05 00:09:14;;;;;;;78.77;70.67;;;;;21.00;100336.00;;;;2053403;28;20230;-72
2023/05/05 00:10:15;;;;;;;74.43;66.50;;;;;21.00;100336.00;;;;2056901;28;20221;-72
2023/05/05 00:11:15;;;;;;;82.30;72.20;;;;;21.00;100337.00;;;;2051700;28;20246;-72
2023/05/05 00:12:16;;;;;;;81.03;72.40;;;;;21.00;100337.00;;;;2053857;28;20227;-72
2023/05/05 00:13:16;;;;;;;82.70;73.90;;;;;21.00;100341.00;;;;2048810;28;20253;-72
2023/05/05 00:14:17;;;;;;;72.77;65.00;;;;;21.00;100340.00;;;;2046576;28;20237;-72
2023/05/05 00:15:17;;;;;;;74.60;66.77;;;;;21.00;100335.00;;;;2057680;28;21056;-72
2023/05/05 00:16:18;;;;;;;73.77;65.83;;;;;21.00;100322.00;;;;2052828;28;20231;-72
2023/05/05 00:17:18;;;;;;;76.97;68.90;;;;;21.00;100324.00;;;;2053253;28;20450;-72
2023/05/05 00:18:19;;;;;;;71.37;63.63;;;;;21.00;100335.00;;;;2053303;28;20222;-72
2023/05/05 00:19:19;;;;;;;75.30;67.27;;;;;21.00;100326.00;;;;2045217;28;20222;-72
2023/05/05 00:20:20;;;;;;;71.00;63.40;;;;;21.00;100330.00;;;;2052961;28;20265;-72
2023/05/05 00:21:20;;;;;;;72.30;64.70;;;;;21.00;100337.00;;;;2044958;28;20219;-72
2023/05/05 00:22:20;;;;;;;71.30;63.43;;;;;21.00;100330.00;;;;2045649;28;20215;-72
2023/05/05 00:23:21;;;;;;;73.33;65.60;;;;;21.00;100325.00;;;;2058789;28;20295;-72
2023/05/05 00:24:21;;;;;;;68.10;60.80;;;;;21.00;100325.00;;;;2047489;28;20215;-72
2023/05/05 00:25:21;;;;;;;73.90;66.00;;;;;21.00;100326.00;;;;2053323;28;20218;-72
2023/05/05 00:26:22;;;;;;;69.87;62.47;;;;;21.00;100322.00;;;;2053743;28;20272;-72
2023/05/05 00:27:22;;;;;;;69.10;61.93;;;;;21.00;100330.00;;;;2048557;28;20277;-72
2023/05/05 00:28:22;;;;;;;69.73;62.33;;;;;21.00;100333.00;;;;2050523;28;20222;-72
2023/05/05 00:29:23;;;;;;;69.60;62.20;;;;;21.00;100326.00;;;;2048854;28;20216;-72
2023/05/05 00:30:23;;;;;;;69.77;62.20;;;;;21.00;100330.00;;;;2053055;28;20221;-72
2023/05/05 00:31:23;;;;;;;72.23;64.53;;;;;21.00;100333.00;;;;2051045;28;20226;-72
2023/05/05 00:32:24;;;;;;;70.90;63.43;;;;;21.00;100325.00;;;;2053196;28;20210;-72
2023/05/05 00:33:24;;;;;;;70.37;61.93;;;;;21.00;100334.00;;;;2053199;28;20210;-72
2023/05/05 00:34:25;;;;;;;67.07;59.77;;;;;21.00;100324.00;;;;2048560;28;20219;-72
2023/05/05 00:35:26;;;;;;;66.23;59.17;;;;;21.00;100334.00;;;;2046036;28;20211;-72
2023/05/05 00:36:27;;;;;;;68.90;61.78;;;;;21.00;100326.00;;;;2058645;28;20218;-72
2023/05/05 00:37:27;;;;;;;66.40;59.42;;;;;21.00;100321.00;;;;2058431;28;20225;-72
2023/05/05 00:38:27;;;;;;;66.27;59.33;;;;;21.00;100330.00;;;;2061029;28;20240;-72
2023/05/05 00:39:28;;;;;;;67.87;60.60;;;;;21.00;100317.00;;;;2054899;28;20218;-72
2023/05/05 00:40:28;;;;;;;67.80;58.73;;;;;21.00;100325.00;;;;2053868;28;20215;-72
2023/05/05 00:41:29;;;;;;;64.57;57.87;;;;;21.00;100325.00;;;;2056142;28;20314;-72
2023/05/05 00:42:40;;;;;;;61.77;55.27;;;;;21.00;100318.00;;;;2050806;28;20210;-72
2023/05/05 00:43:40;;;;;;;65.30;58.40;;;;;21.00;100322.00;;;;2046982;28;20219;-72
2023/05/05 00:44:41;;;;;;;63.10;56.60;;;;;21.00;100319.00;;;;2053949;28;20297;-72
2023/05/05 00:45:43;;;;;;;64.70;57.80;;;;;21.00;100317.00;;;;2042597;28;20287;-72
2023/05/05 00:46:43;;;;;;;65.32;58.30;;;;;21.00;100321.00;;;;2043557;28;20212;-72
2023/05/05 00:47:48;;;;;;;62.03;55.43;;;;;21.00;100309.00;;;;2045650;28;20213;-72
2023/05/05 00:48:49;;;;;;;62.90;56.30;;;;;21.00;100313.00;;;;2042164;28;20557;-72
2023/05/05 00:49:50;;;;;;;64.38;57.47;;;;;21.00;100307.00;;;;2044377;28;20222;-72
2023/05/05 00:50:50;;;;;;;60.93;54.43;;;;;21.00;100312.00;;;;2048768;28;20282;-72
2023/05/05 00:51:50;;;;;;;59.53;53.20;;;;;21.00;100314.00;;;;2042064;28;20204;-72
2023/05/05 00:52:59;;;;;;;60.57;54.20;;;;;21.00;100312.00;;;;2047750;28;20216;-72
2023/05/05 00:54:00;;;;;;;60.45;54.10;;;;;21.00;100306.00;;;;2051061;28;20228;-72
2023/05/05 00:55:00;;;;;;;57.50;51.63;;;;;21.00;100317.00;;;;2039958;28;20223;-72
2023/05/05 00:56:01;;;;;;;59.33;53.13;;;;;21.00;100314.00;;;;2043603;28;20215;-72
2023/05/05 00:57:01;;;;;;;60.23;54.00;;;;;21.00;100315.00;;;;2039728;28;20285;-72
2023/05/05 00:58:02;;;;;;;54.67;48.90;;;;;21.00;100313.00;;;;2031268;28;20228;-72
2023/05/05 00:59:03;;;;;;;59.38;53.00;;;;;21.00;100310.00;;;;2045312;28;20222;-72
2023/05/05 01:00:04;;;;;;;60.30;54.10;;;;;21.00;100316.00;;;;2049058;28;20232;-72
2023/05/05 01:01:05;;;;;;;56.65;50.75;;;;;21.00;100316.00;;;;2048120;28;20215;-72
2023/05/05 01:02:05;;;;;;;55.10;49.47;;;;;21.00;100318.00;;;;2050163;28;20273;-72
2023/05/05 01:03:05;;;;;;;58.07;52.03;;;;;21.00;100323.00;;;;2052535;28;20218;-72
2023/05/05 01:04:06;;;;;;;59.10;52.90;;;;;21.00;100315.00;;;;2060135;28;20635;-72
2023/05/05 01:05:07;;;;;;;56.63;50.53;;;;;21.00;100319.00;;;;2050939;28;20210;-72
2023/05/05 01:06:16;;;;;;;56.10;50.40;;;;;21.00;100319.00;;;;2038561;28;20275;-72
2023/05/05 01:07:39;;;;;;;56.10;50.15;;;;;21.00;100322.00;;;;2047302;28;20219;-72
2023/05/05 01:09:00;;;;;;;55.83;50.05;;;;;21.00;100319.00;;;;2053083;28;20233;-72
2023/05/05 01:10:25;;;;;;;54.65;48.90;;;;;21.00;100314.00;;;;2053400;28;20218;-72
2023/05/05 01:11:31;;;;;;;57.00;51.05;;;;;21.00;100319.00;;;;2053427;28;20214;-72
2023/05/05 01:12:31;;;;;;;55.05;49.45;;;;;21.00;100314.00;;;;2051579;28;20295;-72
2023/05/05 01:13:50;;;;;;;50.87;45.57;;;;;21.00;100319.00;;;;2056803;28;20353;-72
2023/05/05 01:15:07;;;;;;;54.53;48.85;;;;;20.90;100317.00;;;;2054576;28;20214;-72
2023/05/05 01:16:13;;;;;;;52.53;46.67;;;;;21.00;100323.00;;;;2053532;28;20701;-72
2023/05/05 01:17:23;;;;;;;52.80;47.20;;;;;21.00;100315.00;;;;2051466;28;20610;-72
2023/05/05 01:18:35;;;;;;;52.72;47.22;;;;;21.00;100310.00;;;;2043810;28;20223;-72
2023/05/05 01:19:56;;;;;;;51.95;46.45;;;;;21.00;100323.00;;;;2038577;28;21212;-72
2023/05/05 01:21:00;;;;;;;51.65;46.15;;;;;21.00;100325.00;;;;2035070;28;20215;-72
2023/05/05 01:22:01;;;;;;;50.28;45.15;;;;;21.00;100323.00;;;;2052323;28;20219;-72
2023/05/05 01:23:05;;;;;;;50.43;45.20;;;;;21.00;100319.00;;;;2044938;28;20723;-73
2023/05/05 01:24:20;;;;;;;53.50;48.00;;;;;20.90;100314.00;;;;2029225;28;20224;-72
2023/05/05 01:26:12;;;;;;;49.58;44.35;;;;;21.00;100320.00;;;;2030594;28;20678;-72
2023/05/05 01:27:30;;;;;;;51.72;46.20;;;;;20.90;100321.00;;;;2032406;28;20219;-72
2023/05/05 01:28:58;;;;;;;49.25;44.25;;;;;20.90;100319.00;;;;2053135;28;20300;-72
2023/05/05 01:30:04;;;;;;;50.47;45.13;;;;;20.90;100324.00;;;;2052691;28;20220;-72
2023/05/05 01:31:08;;;;;;;51.25;45.75;;;;;20.90;100324.00;;;;2052247;28;20599;-72
2023/05/05 01:32:13;;;;;;;50.65;45.30;;;;;20.90;100314.00;;;;2054858;28;20337;-72
2023/05/05 01:33:14;;;;;;;49.95;44.75;;;;;20.90;100314.00;;;;2052043;28;20215;-72
2023/05/05 01:34:14;;;;;;;49.15;44.20;;;;;21.00;100318.00;;;;2046586;28;20220;-72
2023/05/05 01:35:18;;;;;;;49.33;43.90;;;;;21.00;100324.00;;;;2037468;28;20223;-72
2023/05/05 01:36:25;;;;;;;46.75;42.05;;;;;21.00;100324.00;;;;2051027;28;20265;-72
2023/05/05 01:37:47;;;;;;;46.28;41.58;;;;;21.00;100323.00;;;;2048692;28;20203;-72
2023/05/05 01:38:50;;;;;;;47.28;42.47;;;;;21.00;100323.00;;;;2047391;28;20258;-72
2023/05/05 01:39:58;;;;;;;47.92;43.03;;;;;20.90;100331.00;;;;2041628;28;20307;-72
2023/05/05 01:41:17;;;;;;;47.35;42.40;;;;;20.90;100318.00;;;;2045099;28;20263;-72
2023/05/05 01:42:17;;;;;;;44.78;39.97;;;;;20.90;100330.00;;;;2048012;28;20239;-72
2023/05/05 01:43:18;;;;;;;47.13;42.17;;;;;20.90;100318.00;;;;2036909;28;20243;-72
2023/05/05 01:44:19;;;;;;;45.05;40.30;;;;;20.90;100332.00;;;;2051022;28;20302;-72
2023/05/05 01:45:20;;;;;;;44.60;40.10;;;;;20.90;100324.00;;;;2044284;28;20215;-72
2023/05/05 01:46:20;;;;;;;44.28;39.88;;;;;20.90;100324.00;;;;2035626;28;20220;-72
2023/05/05 01:47:21;;;;;;;45.20;40.70;;;;;20.90;100331.00;;;;2043451;28;20379;-72
2023/05/05 01:48:21;;;;;;;43.23;38.70;;;;;20.90;100333.00;;;;2036694;28;20216;-72
2023/05/05 01:49:21;;;;;;;47.47;42.37;;;;;20.90;100335.00;;;;2042702;28;20228;-72
2023/05/05 01:50:22;;;;;;;47.20;42.30;;;;;20.90;100333.00;;;;2045754;28;20239;-72
2023/05/05 01:51:23;;;;;;;41.00;36.80;;;;;20.90;100322.00;;;;2044461;28;20204;-72
2023/05/05 01:52:23;;;;;;;41.50;37.20;;;;;20.90;100335.00;;;;2048652;28;20211;-72
2023/05/05 01:53:23;;;;;;;41.77;37.57;;;;;20.90;100332.00;;;;2036612;28;21073;-72
2023/05/05 01:54:24;;;;;;;43.67;39.17;;;;;20.90;100330.00;;;;2055730;28;20219;-72
2023/05/05 01:55:25;;;;;;;42.23;37.97;;;;;20.90;100336.00;;;;2044847;28;20336;-72
2023/05/05 01:56:25;;;;;;;40.03;36.00;;;;;20.90;100325.00;;;;2024733;28;20765;-72
2023/05/05 01:57:25;;;;;;;40.13;36.07;;;;;20.90;100326.00;;;;2042775;28;20207;-72
2023/05/05 01:58:26;;;;;;;44.97;40.07;;;;;20.90;100335.00;;;;2044895;28;20301;-73
2023/05/05 01:59:26;;;;;;;53.00;47.37;;;;;21.00;100335.00;;;;2050286;28;20222;-73
2023/05/05 02:00:26;;;;;;;46.90;42.03;;;;;21.00;100341.00;;;;2060136;28;20213;-72
2023/05/05 02:01:27;;;;;;;49.20;43.43;;;;;21.00;100339.00;;;;2040060;28;20275;-72
2023/05/05 02:02:27;;;;;;;45.60;40.90;;;;;21.00;100338.00;;;;2044824;28;20218;-72
2023/05/05 02:03:27;;;;;;;44.50;39.93;;;;;21.00;100336.00;;;;2046292;28;20228;-72
2023/05/05 02:04:28;;;;;;;41.93;37.40;;;;;21.00;100349.00;;;;2054858;28;20318;-72
2023/05/05 02:05:29;;;;;;;42.40;37.90;;;;;21.00;100347.00;;;;2045082;28;20222;-72
2023/05/05 02:06:31;;;;;;;43.33;38.83;;;;;20.90;100360.00;;;;2057364;28;20461;-72
2023/05/05 02:07:31;;;;;;;43.88;39.28;;;;;20.90;100351.00;;;;2060617;28;20652;-72
2023/05/05 02:08:32;;;;;;;38.90;34.80;;;;;20.90;100352.00;;;;2044909;28;21027;-72
2023/05/05 02:09:32;;;;;;;40.43;36.10;;;;;20.90;100344.00;;;;2036952;28;20251;-72
2023/05/05 02:10:32;;;;;;;38.70;33.77;;;;;20.90;100350.00;;;;2035485;28;20831;-72
2023/05/05 02:11:33;;;;;;;38.40;34.50;;;;;20.90;100339.00;;;;2044783;28;20718;-72
2023/05/05 02:12:33;;;;;;;39.13;35.10;;;;;20.90;100345.00;;;;2037541;28;20220;-72
2023/05/05 02:13:33;;;;;;;38.03;34.03;;;;;20.90;100347.00;;;;2055499;28;20313;-72
2023/05/05 02:14:34;;;;;;;38.13;34.27;;;;;20.90;100343.00;;;;2050599;28;20219;-72
2023/05/05 02:15:35;;;;;;;35.90;32.20;;;;;20.90;100348.00;;;;2047023;28;20222;-72
2023/05/05 02:16:36;;;;;;;34.90;31.43;;;;;20.90;100346.00;;;;2048601;28;20241;-72
2023/05/05 02:17:36;;;;;;;35.15;31.45;;;;;20.90;100348.00;;;;2046529;28;20458;-72
2023/05/05 02:18:37;;;;;;;34.83;31.47;;;;;20.90;100346.00;;;;2053672;28;20700;-72
2023/05/05 02:19:39;;;;;;;37.70;33.78;;;;;20.90;100351.00;;;;2048416;28;20671;-72
2023/05/05 02:20:39;;;;;;;37.13;33.40;;;;;20.90;100350.00;;;;2053317;28;20218;-72
2023/05/05 02:21:40;;;;;;;34.87;31.27;;;;;20.90;100350.00;;;;2041442;28;20211;-72
2023/05/05 02:22:40;;;;;;;34.30;30.70;;;;;20.90;100348.00;;;;2041820;28;20645;-72
2023/05/05 02:23:41;;;;;;;33.07;29.67;;;;;20.90;100345.00;;;;2060005;28;20210;-72
2023/05/05 02:24:42;;;;;;;33.03;29.73;;;;;20.90;100347.00;;;;2053389;28;20230;-72
2023/05/05 02:25:43;;;;;;;33.75;30.33;;;;;20.90;100342.00;;;;2062156;28;20215;-72
2023/05/05 02:26:43;;;;;;;31.87;28.60;;;;;20.90;100356.00;;;;2058547;28;20828;-72
2023/05/05 02:27:44;;;;;;;33.23;29.63;;;;;20.90;100356.00;;;;2045423;28;20454;-72
2023/05/05 02:28:51;;;;;;;33.40;29.90;;;;;20.80;100353.00;;;;2038137;28;20774;-72
2023/05/05 02:29:55;;;;;;;32.35;29.15;;;;;20.90;100358.00;;;;2029607;28;20767;-72
2023/05/05 02:30:56;;;;;;;30.83;27.52;;;;;20.90;100359.00;;;;2041705;28;20215;-72
2023/05/05 02:32:00;;;;;;;31.05;27.85;;;;;20.90;100353.00;;;;2056169;28;20278;-72
2023/05/05 02:33:05;;;;;;;31.02;27.83;;;;;20.90;100360.00;;;;2053871;28;20211;-72
2023/05/05 02:34:05;;;;;;;32.20;28.85;;;;;20.90;100363.00;;;;2053918;28;20717;-72
2023/05/05 02:35:12;;;;;;;28.13;25.23;;;;;20.90;100344.00;;;;2051415;28;20239;-72
2023/05/05 02:36:20;;;;;;;29.63;26.63;;;;;20.90;100358.00;;;;2053015;28;20215;-72
2023/05/05 02:37:22;;;;;;;28.58;25.63;;;;;20.90;100365.00;;;;2036796;28;20212;-72
2023/05/05 02:38:26;;;;;;;30.38;26.23;;;;;20.90;100363.00;;;;2045717;28;20231;-72
2023/05/05 02:39:30;;;;;;;29.88;26.85;;;;;20.90;100364.00;;;;2037637;28;20295;-72
2023/05/05 02:40:33;;;;;;;32.55;29.25;;;;;20.90;100361.00;;;;2046435;28;20278;-72
2023/05/05 02:41:33;;;;;;;29.08;26.13;;;;;20.90;100371.00;;;;2053205;28;20221;-72
2023/05/05 02:42:35;;;;;;;33.00;29.50;;;;;20.90;100357.00;;;;2055336;28;20210;-72
2023/05/05 02:43:35;;;;;;;30.77;27.58;;;;;20.80;100366.00;;;;2037310;28;20220;-72
2023/05/05 02:44:36;;;;;;;29.00;26.10;;;;;20.90;100374.00;;;;2043188;28;20233;-72
2023/05/05 02:45:36;;;;;;;28.97;26.07;;;;;20.90;100372.00;;;;2040126;28;20216;-72
2023/05/05 02:46:37;;;;;;;30.43;27.43;;;;;20.90;100373.00;;;;2050860;28;20238;-72
2023/05/05 02:47:37;;;;;;;27.93;25.13;;;;;20.90;100370.00;;;;2057297;28;20221;-72
2023/05/05 02:48:37;;;;;;;29.33;26.33;;;;;20.90;100381.00;;;;2038991;28;20445;-72
2023/05/05 02:49:38;;;;;;;29.63;26.30;;;;;20.90;100375.00;;;;2052104;28;20219;-72
2023/05/05 02:50:38;;;;;;;26.70;24.07;;;;;20.90;100382.00;;;;2053060;28;20214;-72
2023/05/05 02:51:38;;;;;;;28.00;25.20;;;;;20.90;100376.00;;;;2059721;28;20748;-72
2023/05/05 02:52:39;;;;;;;28.53;25.73;;;;;20.80;100376.00;;;;2057564;28;20314;-72
2023/05/05 02:53:39;;;;;;;29.00;26.10;;;;;20.80;100378.00;;;;2044994;28;20216;-72
2023/05/05 02:54:39;;;;;;;26.60;23.90;;;;;20.90;100380.00;;;;2052188;28;20221;-72
2023/05/05 02:55:46;;;;;;;27.00;24.13;;;;;20.90;100380.00;;;;2052516;28;20215;-72
2023/05/05 02:56:47;;;;;;;26.83;24.23;;;;;20.90;100383.00;;;;2050938;28;20632;-72
2023/05/05 02:58:07;;;;;;;27.10;24.55;;;;;20.90;100383.00;;;;2037407;28;20228;-72
2023/05/05 02:59:15;;;;;;;26.10;23.55;;;;;20.90;100379.00;;;;2038744;28;20689;-72
2023/05/05 03:00:23;;;;;;;25.45;22.85;;;;;20.90;100390.00;;;;2044811;28;20783;-72
2023/05/05 03:01:38;;;;;;;24.00;21.58;;;;;20.90;100395.00;;;;2053610;28;20218;-72
2023/05/05 03:02:44;;;;;;;25.35;22.75;;;;;20.90;100390.00;;;;2053129;28;20230;-72
2023/05/05 03:03:53;;;;;;;24.73;22.08;;;;;20.90;100392.00;;;;2053945;28;20684;-72
2023/05/05 03:05:03;;;;;;;22.25;20.08;;;;;20.90;100392.00;;;;2052237;28;20841;-72
2023/05/05 03:06:09;;;;;;;24.52;22.10;;;;;20.90;100384.00;;;;2054294;28;20211;-72
2023/05/05 03:07:13;;;;;;;22.20;20.00;;;;;20.90;100401.00;;;;2053454;28;20402;-72
2023/05/05 03:08:15;;;;;;;24.23;21.83;;;;;20.90;100386.00;;;;2053488;28;20231;-72
2023/05/05 03:09:21;;;;;;;22.52;20.25;;;;;20.90;100387.00;;;;2053594;28;20211;-72
2023/05/05 03:10:26;;;;;;;22.20;19.95;;;;;20.90;100394.00;;;;2060040;28;20210;-72
2023/05/05 03:11:30;;;;;;;21.30;19.23;;;;;20.90;100387.00;;;;2046370;28;20212;-72
2023/05/05 03:12:55;;;;;;;24.05;21.45;;;;;20.90;100402.00;;;;2043488;28;20224;-72
2023/05/05 03:14:03;;;;;;;22.55;20.15;;;;;20.90;100394.00;;;;2046061;28;20211;-72
2023/05/05 03:15:05;;;;;;;21.50;19.23;;;;;20.90;100390.00;;;;2064376;28;20206;-72
2023/05/05 03:16:05;;;;;;;22.30;19.92;;;;;20.90;100389.00;;;;2058073;28;20210;-72
2023/05/05 03:17:06;;;;;;;22.17;20.07;;;;;20.90;100387.00;;;;2054434;28;20322;-72
2023/05/05 03:18:07;;;;;;;22.10;19.90;;;;;20.90;100388.00;;;;2055815;28;20203;-72
2023/05/05 03:19:09;;;;;;;22.45;20.25;;;;;20.90;100386.00;;;;2048038;28;20259;-72
2023/05/05 03:20:10;;;;;;;21.92;19.65;;;;;20.90;100395.00;;;;2043030;28;20231;-72
2023/05/05 03:21:10;;;;;;;23.35;21.05;;;;;20.90;100399.00;;;;2053144;28;20227;-72
2023/05/05 03:22:11;;;;;;;20.57;18.57;;;;;20.90;100399.00;;;;2045448;28;20228;-72
2023/05/05 03:23:17;;;;;;;21.77;19.67;;;;;20.90;100400.00;;;;2049520;28;20309;-72
2023/05/05 03:24:18;;;;;;;21.70;19.55;;;;;20.90;100404.00;;;;2050737;28;20223;-72
2023/05/05 03:25:18;;;;;;;20.92;18.85;;;;;20.90;100403.00;;;;2049274;28;20282;-72
2023/05/05 03:26:19;;;;;;;20.13;18.23;;;;;20.90;100403.00;;;;2027214;28;20543;-72
2023/05/05 03:27:19;;;;;;;22.10;19.97;;;;;20.90;100399.00;;;;2040552;28;20215;-73
2023/05/05 03:28:20;;;;;;;21.47;19.30;;;;;20.90;100397.00;;;;2060226;28;20334;-72
2023/05/05 03:29:20;;;;;;;20.13;18.23;;;;;20.90;100395.00;;;;2053719;28;20223;-72
2023/05/05 03:30:20;;;;;;;20.20;18.30;;;;;20.80;100396.00;;;;2054774;28;20211;-72
2023/05/05 03:31:21;;;;;;;19.33;17.43;;;;;20.90;100387.00;;;;2053910;28;20241;-72
2023/05/05 03:32:24;;;;;;;21.10;18.97;;;;;20.90;100393.00;;;;2053776;28;20974;-72
2023/05/05 03:33:24;;;;;;;20.83;18.60;;;;;20.90;100382.00;;;;2045399;28;20215;-72
2023/05/05 03:34:24;;;;;;;20.03;18.00;;;;;20.90;100395.00;;;;2052044;28;20233;-72
2023/05/05 03:35:25;;;;;;;20.53;18.37;;;;;20.90;100397.00;;;;2047149;28;20211;-72
2023/05/05 03:36:26;;;;;;;20.40;18.50;;;;;20.90;100391.00;;;;2053120;28;20276;-72
2023/05/05 03:37:26;;;;;;;19.15;17.30;;;;;20.90;100387.00;;;;2051394;28;20203;-72
2023/05/05 03:38:26;;;;;;;20.27;18.30;;;;;20.80;100386.00;;;;2053342;28;20286;-72
2023/05/05 03:39:27;;;;;;;19.27;17.27;;;;;20.90;100389.00;;;;2055892;28;20222;-72
2023/05/05 03:40:27;;;;;;;21.67;19.47;;;;;20.90;100398.00;;;;2047664;28;20230;-72
2023/05/05 03:41:28;;;;;;;20.90;18.80;;;;;20.90;100399.00;;;;2059778;28;20222;-72
2023/05/05 03:42:28;;;;;;;19.17;17.30;;;;;20.90;100392.00;;;;2051542;28;20228;-72
2023/05/05 03:43:28;;;;;;;19.80;17.83;;;;;20.90;100395.00;;;;2052923;28;20233;-72
2023/05/05 03:44:29;;;;;;;19.37;17.37;;;;;20.90;100400.00;;;;2057548;28;20214;-72
2023/05/05 03:45:29;;;;;;;20.87;18.90;;;;;20.90;100400.00;;;;2050042;28;20273;-72
2023/05/05 03:46:30;;;;;;;19.80;17.90;;;;;20.90;100399.00;;;;2054213;28;20226;-72
2023/05/05 03:47:30;;;;;;;18.03;16.30;;;;;20.90;100396.00;;;;2051208;28;20225;-72
2023/05/05 03:48:30;;;;;;;18.50;16.67;;;;;20.90;100400.00;;;;2046276;28;20223;-72
2023/05/05 03:49:31;;;;;;;18.00;16.20;;;;;20.90;100396.00;;;;2052861;28;20274;-72
2023/05/05 03:50:31;;;;;;;18.10;16.40;;;;;20.80;100402.00;;;;2054634;28;20305;-72
2023/05/05 03:51:31;;;;;;;19.27;17.37;;;;;20.80;100398.00;;;;2053914;28;20633;-72
2023/05/05 03:52:32;;;;;;;18.47;16.67;;;;;20.80;100397.00;;;;2049688;28;20748;-72
2023/05/05 03:53:32;;;;;;;17.77;16.07;;;;;20.90;100393.00;;;;2047265;28;20591;-72
2023/05/05 03:54:32;;;;;;;19.47;17.67;;;;;20.80;100398.00;;;;2045939;28;20733;-72
2023/05/05 03:55:33;;;;;;;19.07;17.17;;;;;20.80;100403.00;;;;2044227;28;20290;-72
2023/05/05 03:56:33;;;;;;;16.80;15.20;;;;;20.80;100401.00;;;;2052054;28;20254;-72
2023/05/05 03:57:33;;;;;;;18.23;16.43;;;;;20.80;100401.00;;;;2053198;28;20222;-72
2023/05/05 03:58:34;;;;;;;18.13;16.43;;;;;20.80;100397.00;;;;2049670;28;20227;-72
2023/05/05 03:59:34;;;;;;;18.17;16.37;;;;;20.80;100390.00;;;;2048753;28;20222;-72
2023/05/05 04:00:34;;;;;;;17.07;15.47;;;;;20.80;100396.00;;;;2056533;28;20734;-72
2023/05/05 04:01:35;;;;;;;17.30;15.60;;;;;20.80;100395.00;;;;2060251;28;20696;-72
2023/05/05 04:02:35;;;;;;;16.90;15.30;;;;;20.80;100393.00;;;;2055838;28;20686;-72
2023/05/05 04:03:36;;;;;;;16.97;15.37;;;;;20.90;100390.00;;;;2056279;28;20221;-72
2023/05/05 04:04:36;;;;;;;16.03;14.43;;;;;20.80;100389.00;;;;2051572;28;20250;-72
2023/05/05 04:05:36;;;;;;;17.07;15.37;;;;;20.80;100393.00;;;;2057623;28;20230;-72
2023/05/05 04:06:37;;;;;;;17.03;15.43;;;;;20.80;100391.00;;;;2049111;28;20215;-72
2023/05/05 04:07:37;;;;;;;16.43;14.93;;;;;20.80;100394.00;;;;2046103;28;20270;-72
2023/05/05 04:08:37;;;;;;;16.00;14.43;;;;;20.80;100400.00;;;;2053884;28;20349;-72
2023/05/05 04:09:43;;;;;;;16.87;14.70;;;;;20.80;100398.00;;;;2052491;28;20287;-72
2023/05/05 04:10:43;;;;;;;16.50;14.90;;;;;20.80;100400.00;;;;2047937;28;20221;-72
2023/05/05 04:11:43;;;;;;;16.87;15.10;;;;;20.80;100398.00;;;;2053449;28;20215;-72
2023/05/05 04:12:44;;;;;;;15.20;13.80;;;;;20.80;100402.00;;;;2052408;28;20221;-72
2023/05/05 04:13:45;;;;;;;15.83;14.33;;;;;20.80;100401.00;;;;2054622;28;20211;-72
2023/05/05 04:14:45;;;;;;;15.13;13.73;;;;;20.90;100402.00;;;;2054206;28;20268;-72
2023/05/05 04:15:45;;;;;;;15.67;14.17;;;;;20.80;100400.00;;;;2049552;28;20989;-72
2023/05/05 04:16:46;;;;;;;16.27;14.60;;;;;20.90;100402.00;;;;2056189;28;20206;-72
2023/05/05 04:17:46;;;;;;;16.13;14.47;;;;;20.80;100407.00;;;;2051341;28;20215;-72
2023/05/05 04:18:46;;;;;;;15.13;13.63;;;;;20.80;100404.00;;;;2052950;28;20218;-72
2023/05/05 04:19:47;;;;;;;15.23;13.67;;;;;20.90;100410.00;;;;2046902;28;20233;-72
2023/05/05 04:20:47;;;;;;;14.30;12.90;;;;;20.90;100402.00;;;;2047264;28;20729;-72
2023/05/05 04:21:48;;;;;;;14.53;13.13;;;;;20.80;100408.00;;;;2056105;28;20260;-72
2023/05/05 04:22:48;;;;;;;15.67;14.17;;;;;20.80;100404.00;;;;2049794;28;20266;-72
2023/05/05 04:23:48;;;;;;;14.83;13.30;;;;;20.80;100408.00;;;;2052480;28;20237;-72
2023/05/05 04:24:49;;;;;;;15.00;13.60;;;;;20.80;100401.00;;;;2044499;28;20215;-72
2023/05/05 04:25:49;;;;;;;13.60;12.30;;;;;20.80;100416.00;;;;2047153;28;20218;-72
2023/05/05 04:26:50;;;;;;;16.63;14.70;;;;;20.80;100414.00;;;;2050873;28;20452;-73
2023/05/05 04:27:51;;;;;;;16.93;15.33;;;;;20.90;100412.00;;;;2042800;28;20211;-73
2023/05/05 04:28:51;;;;;;;16.80;15.20;;;;;20.90;100417.00;;;;2039856;28;20215;-72
2023/05/05 04:29:51;;;;;;;16.73;15.10;;;;;20.90;100417.00;;;;2053317;28;20216;-72
2023/05/05 04:30:52;;;;;;;16.70;13.67;;;;;20.90;100409.00;;;;2058345;28;20211;-72
2023/05/05 04:31:53;;;;;;;14.40;13.07;;;;;20.90;100411.00;;;;2058319;28;20213;-72
2023/05/05 04:32:53;;;;;;;14.93;13.52;;;;;20.80;100415.00;;;;2057194;28;20198;-72
2023/05/05 04:33:53;;;;;;;13.97;12.67;;;;;20.80;100421.00;;;;2052926;28;20290;-72
2023/05/05 04:34:54;;;;;;;13.90;12.60;;;;;20.80;100412.00;;;;2051958;28;20202;-72
2023/05/05 04:35:54;;;;;;;13.70;12.37;;;;;20.80;100417.00;;;;2052804;28;20218;-72
2023/05/05 04:36:55;;;;;;;14.80;13.07;;;;;20.80;100418.00;;;;2046992;28;20270;-72
2023/05/05 04:37:55;;;;;;;13.43;12.13;;;;;20.80;100423.00;;;;2047911;28;20675;-72
2023/05/05 04:38:56;;;;;;;13.20;11.90;;;;;20.80;100413.00;;;;2047525;28;20315;-72
2023/05/05 04:39:56;;;;;;;14.13;12.73;;;;;20.80;100428.00;;;;2056802;28;20211;-72
2023/05/05 04:40:56;;;;;;;13.50;11.90;;;;;20.80;100421.00;;;;2053864;28;20215;-72
2023/05/05 04:41:57;;;;;;;13.40;12.10;;;;;20.80;100434.00;;;;2049383;28;20300;-72
2023/05/05 04:42:57;;;;;;;13.80;12.40;;;;;20.80;100436.00;;;;2054508;28;20572;-72
2023/05/05 04:43:57;;;;;;;13.43;12.07;;;;;20.80;100429.00;;;;2050333;28;20660;-72
2023/05/05 04:44:57;;;;;;;13.30;12.00;;;;;20.80;100433.00;;;;2051440;28;20847;-72
2023/05/05 04:45:58;;;;;;;14.27;12.93;;;;;20.80;100437.00;;;;2058583;28;21031;-72
2023/05/05 04:47:01;;;;;;;12.43;11.23;;;;;20.80;100442.00;;;;2060097;28;20333;-72
2023/05/05 04:48:03;;;;;;;12.90;11.70;;;;;20.80;100439.00;;;;2052201;28;20836;-72
2023/05/05 04:49:04;;;;;;;13.40;12.10;;;;;20.80;100435.00;;;;2050912;28;20582;-72
2023/05/05 04:50:05;;;;;;;12.52;11.35;;;;;20.80;100447.00;;;;2049202;28;20218;-72
2023/05/05 04:51:06;;;;;;;15.45;11.50;;;;;20.80;100447.00;;;;2051561;28;20211;-72
2023/05/05 04:52:06;;;;;;;13.37;12.07;;;;;20.80;100446.00;;;;2051313;28;20274;-72
2023/05/05 04:53:06;;;;;;;11.30;10.20;;;;;20.80;100449.00;;;;2056402;28;20214;-72
2023/05/05 04:54:07;;;;;;;11.30;10.13;;;;;20.80;100440.00;;;;2051513;28;20253;-72
2023/05/05 04:55:08;;;;;;;12.30;11.10;;;;;20.80;100435.00;;;;2053027;28;20215;-72
2023/05/05 04:56:08;;;;;;;12.97;11.70;;;;;20.80;100447.00;;;;2052253;28;20263;-72
2023/05/05 04:57:08;;;;;;;11.87;10.67;;;;;20.80;100451.00;;;;2045090;28;20206;-72
2023/05/05 04:58:09;;;;;;;12.93;11.73;;;;;20.80;100453.00;;;;2056042;28;20219;-72
2023/05/05 04:59:09;;;;;;;12.63;11.43;;;;;20.80;100446.00;;;;2047653;28;20707;-72
2023/05/05 05:00:10;;;;;;;12.00;10.80;;;;;20.80;100446.00;;;;2050015;28;20212;-72
2023/05/05 05:01:10;;;;;;;11.43;9.20;;;;;20.80;100449.00;;;;2058766;28;22550;-72